Terminal Aerodrome Forecast
Issued by NWS

Home | Current Version | Previous Version | Text Only | Print | Product List | Glossary On
Versions: 1 2 3 4 5 6 7 8 9 10 11 12 13 14 15
000
FTUS44 KLZK 290520
TAFLLQ
TAF
KLLQ 290520Z 2906/3006 09006KT P6SM BKN050
     FM291000 13008KT P6SM BKN025 OVC050
     FM291500 14010G18KT P6SM BKN035
     FM291800 17010G20KT P6SM SCT050=

USA.gov is the U.S. government's official web portal to all federal, state and local government web resources and services.